DLH62F EDDF-LEBL
Flight info
| Callsign | DLH62F |
|---|---|
| Flight time | 1h 35m |
| Altitude | 34000 |
| Route | ANEKI2L/18 ANEKI Y163 HERBI Y164 MOPAN DCT LUTIX DCT BENOT DCT NEMOS DCT GEVEA DCT INCUS DCT BALSI DCT RETNO DCT TUPOX DCT MTG DCT DIVKO DCT NILDU DCT BISBA |
| Aircraft | A320/M-SDE3FGHIRWY/LB1 |
Departure
| Time | 2026-04-14 12:31 |
|---|---|
| Airport | Frankfurt Main Airport (EDDF) |
Arrival
| Time | 2026-04-14 14:06 |
|---|---|
| Airport | Josep Tarradellas Barcelona-El Prat Airport (LEBL) |
| Time | Latitude | Longitude | Altitude | Speed | Heading |
|---|---|---|---|---|---|
| 2026-04-14 11:55 | 50.04737 | 8.56737 | 356 ft | 0 kts | 115° |
| 2026-04-14 12:20 | 50.04738 | 8.56731 | 356 ft | 3 kts | 114° |
| 2026-04-14 12:20 | 50.04747 | 8.56694 | 360 ft | 4 kts | 117° |
| 2026-04-14 12:20 | 50.04763 | 8.56670 | 362 ft | 4 kts | 177° |
| 2026-04-14 12:21 | 50.04786 | 8.56677 | 359 ft | 2 kts | 205° |
| 2026-04-14 12:21 | 50.04788 | 8.56678 | 357 ft | 0 kts | 205° |
| 2026-04-14 12:24 | 50.04784 | 8.56675 | 356 ft | 2 kts | 205° |
| 2026-04-14 12:24 | 50.04757 | 8.56652 | 362 ft | 7 kts | 215° |
| 2026-04-14 12:25 | 50.04712 | 8.56564 | 356 ft | 12 kts | 234° |
| 2026-04-14 12:25 | 50.04672 | 8.56455 | 360 ft | 11 kts | 248° |
| 2026-04-14 12:25 | 50.04642 | 8.56330 | 362 ft | 15 kts | 250° |
| 2026-04-14 12:25 | 50.04599 | 8.56147 | 362 ft | 20 kts | 250° |
| 2026-04-14 12:26 | 50.04531 | 8.55960 | 358 ft | 20 kts | 209° |
| 2026-04-14 12:26 | 50.04406 | 8.55906 | 360 ft | 18 kts | 182° |
| 2026-04-14 12:26 | 50.04310 | 8.55948 | 361 ft | 9 kts | 160° |
| 2026-04-14 12:26 | 50.04240 | 8.55929 | 361 ft | 15 kts | 231° |
| 2026-04-14 12:27 | 50.04194 | 8.55751 | 359 ft | 19 kts | 249° |
| 2026-04-14 12:27 | 50.04147 | 8.55552 | 355 ft | 21 kts | 249° |
| 2026-04-14 12:27 | 50.04094 | 8.55330 | 361 ft | 23 kts | 249° |
| 2026-04-14 12:27 | 50.04038 | 8.55096 | 360 ft | 24 kts | 249° |
| 2026-04-14 12:28 | 50.03975 | 8.54836 | 356 ft | 27 kts | 249° |
| 2026-04-14 12:28 | 50.03906 | 8.54543 | 356 ft | 30 kts | 250° |
| 2026-04-14 12:28 | 50.03807 | 8.54247 | 350 ft | 32 kts | 240° |
| 2026-04-14 12:28 | 50.03728 | 8.53922 | 347 ft | 33 kts | 249° |
| 2026-04-14 12:29 | 50.03647 | 8.53586 | 344 ft | 34 kts | 249° |
| 2026-04-14 12:29 | 50.03562 | 8.53240 | 337 ft | 35 kts | 250° |
| 2026-04-14 12:29 | 50.03481 | 8.52902 | 335 ft | 31 kts | 247° |
| 2026-04-14 12:29 | 50.03402 | 8.52632 | 333 ft | 25 kts | 229° |
| 2026-04-14 12:30 | 50.03204 | 8.52594 | 335 ft | 44 kts | 180° |
| 2026-04-14 12:30 | 50.02645 | 8.52602 | 335 ft | 113 kts | 180° |
| 2026-04-14 12:30 | 50.01663 | 8.52612 | 335 ft | 166 kts | 179° |
| 2026-04-14 12:30 | 50.00434 | 8.52628 | 760 ft | 179 kts | 179° |
| 2026-04-14 12:31 | 49.99163 | 8.52704 | 1427 ft | 187 kts | 176° |
| 2026-04-14 12:31 | 49.97804 | 8.52807 | 1831 ft | 203 kts | 176° |
| 2026-04-14 12:31 | 49.96320 | 8.52922 | 2156 ft | 226 kts | 176° |
| 2026-04-14 12:31 | 49.94701 | 8.53036 | 2821 ft | 234 kts | 177° |
| 2026-04-14 12:32 | 49.93064 | 8.53146 | 3684 ft | 237 kts | 177° |
| 2026-04-14 12:32 | 49.91405 | 8.53257 | 4538 ft | 240 kts | 177° |
| 2026-04-14 12:32 | 49.89725 | 8.53369 | 5352 ft | 244 kts | 177° |
| 2026-04-14 12:32 | 49.88031 | 8.53482 | 6129 ft | 249 kts | 177° |
| 2026-04-14 12:33 | 49.86299 | 8.53598 | 6959 ft | 250 kts | 177° |
| 2026-04-14 12:33 | 49.84559 | 8.53716 | 7788 ft | 250 kts | 178° |
| 2026-04-14 12:33 | 49.82812 | 8.53837 | 8621 ft | 251 kts | 178° |
| 2026-04-14 12:33 | 49.81062 | 8.53961 | 9533 ft | 251 kts | 178° |
| 2026-04-14 12:34 | 49.79907 | 8.54042 | 10123 ft | 251 kts | 178° |
| 2026-04-14 12:34 | 49.77591 | 8.54094 | 11121 ft | 254 kts | 186° |
| 2026-04-14 12:34 | 49.75743 | 8.53851 | 11401 ft | 277 kts | 186° |
| 2026-04-14 12:34 | 49.74430 | 8.53673 | 11559 ft | 293 kts | 186° |
| 2026-04-14 12:35 | 49.72324 | 8.53385 | 11774 ft | 316 kts | 186° |
| 2026-04-14 12:35 | 49.70072 | 8.53077 | 12235 ft | 329 kts | 186° |
| 2026-04-14 12:35 | 49.67776 | 8.52765 | 12908 ft | 334 kts | 186° |
| 2026-04-14 12:35 | 49.65437 | 8.52451 | 13626 ft | 338 kts | 186° |
| 2026-04-14 12:36 | 49.63074 | 8.52139 | 14289 ft | 342 kts | 186° |
| 2026-04-14 12:36 | 49.60716 | 8.51836 | 14907 ft | 346 kts | 186° |
| 2026-04-14 12:36 | 49.58300 | 8.51522 | 15532 ft | 349 kts | 186° |
| 2026-04-14 12:36 | 49.55868 | 8.51203 | 16161 ft | 352 kts | 186° |
| 2026-04-14 12:37 | 49.53413 | 8.50882 | 16782 ft | 356 kts | 186° |
| 2026-04-14 12:37 | 49.50934 | 8.50556 | 17395 ft | 359 kts | 186° |
| 2026-04-14 12:37 | 49.48429 | 8.50224 | 17993 ft | 363 kts | 186° |
| 2026-04-14 12:37 | 49.45900 | 8.49890 | 18587 ft | 366 kts | 186° |
| 2026-04-14 12:38 | 49.40782 | 8.49220 | 19652 ft | 371 kts | 186° |
| 2026-04-14 12:38 | 49.38199 | 8.48884 | 20197 ft | 373 kts | 186° |
| 2026-04-14 12:38 | 49.35638 | 8.48551 | 20732 ft | 375 kts | 186° |
| 2026-04-14 12:39 | 49.33029 | 8.48212 | 21267 ft | 377 kts | 186° |
| 2026-04-14 12:39 | 49.30407 | 8.47871 | 21785 ft | 379 kts | 186° |
| 2026-04-14 12:39 | 49.27772 | 8.47526 | 22299 ft | 381 kts | 186° |
| 2026-04-14 12:39 | 49.25124 | 8.47180 | 22812 ft | 383 kts | 186° |
| 2026-04-14 12:40 | 49.22459 | 8.46835 | 23311 ft | 385 kts | 186° |
| 2026-04-14 12:40 | 49.19775 | 8.46490 | 23777 ft | 387 kts | 186° |
| 2026-04-14 12:40 | 49.17088 | 8.46144 | 24188 ft | 389 kts | 186° |
| 2026-04-14 12:40 | 49.14379 | 8.45794 | 24571 ft | 392 kts | 186° |
| 2026-04-14 12:41 | 49.11651 | 8.45440 | 24943 ft | 395 kts | 186° |
| 2026-04-14 12:41 | 49.08933 | 8.45088 | 25306 ft | 397 kts | 186° |
| 2026-04-14 12:41 | 49.06175 | 8.44648 | 25660 ft | 399 kts | 191° |
| 2026-04-14 12:41 | 49.03453 | 8.43752 | 26012 ft | 401 kts | 194° |
| 2026-04-14 12:42 | 49.00720 | 8.42800 | 26367 ft | 404 kts | 194° |
| 2026-04-14 12:42 | 48.97976 | 8.41842 | 26714 ft | 407 kts | 194° |
| 2026-04-14 12:42 | 48.95200 | 8.40871 | 27067 ft | 409 kts | 194° |
| 2026-04-14 12:42 | 48.92412 | 8.39894 | 27404 ft | 412 kts | 194° |
| 2026-04-14 12:43 | 48.89607 | 8.38913 | 27748 ft | 415 kts | 194° |
| 2026-04-14 12:43 | 48.86783 | 8.37930 | 28084 ft | 417 kts | 194° |
| 2026-04-14 12:43 | 48.83941 | 8.36948 | 28416 ft | 420 kts | 194° |
| 2026-04-14 12:43 | 48.81081 | 8.35963 | 28751 ft | 423 kts | 194° |
| 2026-04-14 12:44 | 48.78204 | 8.34972 | 29084 ft | 425 kts | 194° |
| 2026-04-14 12:44 | 48.75314 | 8.33948 | 29410 ft | 427 kts | 195° |
| 2026-04-14 12:44 | 48.72413 | 8.32888 | 29715 ft | 430 kts | 195° |
| 2026-04-14 12:45 | 48.66608 | 8.30740 | 30303 ft | 434 kts | 195° |
| 2026-04-14 12:45 | 48.63669 | 8.29655 | 30547 ft | 437 kts | 195° |
| 2026-04-14 12:45 | 48.60696 | 8.28567 | 30775 ft | 440 kts | 195° |
| 2026-04-14 12:45 | 48.57711 | 8.27482 | 30988 ft | 442 kts | 195° |
| 2026-04-14 12:46 | 48.54700 | 8.26394 | 31203 ft | 445 kts | 195° |
| 2026-04-14 12:46 | 48.51678 | 8.25307 | 31412 ft | 447 kts | 195° |
| 2026-04-14 12:46 | 48.48645 | 8.24218 | 31686 ft | 448 kts | 195° |
| 2026-04-14 12:46 | 48.47008 | 8.23627 | 31849 ft | 448 kts | 195° |
| 2026-04-14 12:47 | 48.43972 | 8.22522 | 32142 ft | 449 kts | 195° |
| 2026-04-14 12:47 | 48.40933 | 8.21407 | 32420 ft | 450 kts | 195° |
| 2026-04-14 12:47 | 48.37929 | 8.20301 | 32721 ft | 450 kts | 195° |
| 2026-04-14 12:47 | 48.34870 | 8.19179 | 32997 ft | 451 kts | 195° |
| 2026-04-14 12:48 | 48.31815 | 8.18063 | 33289 ft | 452 kts | 194° |
| 2026-04-14 12:48 | 48.28753 | 8.16948 | 33562 ft | 453 kts | 194° |
| 2026-04-14 12:48 | 48.25697 | 8.15777 | 33839 ft | 453 kts | 199° |
| 2026-04-14 12:48 | 48.22759 | 8.14058 | 34110 ft | 453 kts | 207° |
| 2026-04-14 12:49 | 48.18395 | 8.10824 | 34203 ft | 445 kts | 207° |
| 2026-04-14 12:49 | 48.12898 | 8.06764 | 34197 ft | 442 kts | 207° |
| 2026-04-14 12:50 | 48.04616 | 8.00663 | 34197 ft | 442 kts | 207° |
| 2026-04-14 12:51 | 47.99095 | 7.96603 | 34193 ft | 442 kts | 207° |
| 2026-04-14 12:51 | 47.93569 | 7.92560 | 34180 ft | 442 kts | 207° |
| 2026-04-14 12:52 | 47.88044 | 7.88517 | 34180 ft | 442 kts | 207° |
| 2026-04-14 12:52 | 47.82522 | 7.84483 | 34177 ft | 442 kts | 207° |
| 2026-04-14 12:53 | 47.77028 | 7.80490 | 34172 ft | 442 kts | 207° |
| 2026-04-14 12:53 | 47.71493 | 7.76483 | 34182 ft | 442 kts | 207° |
| 2026-04-14 12:54 | 47.65963 | 7.72477 | 34191 ft | 442 kts | 207° |
| 2026-04-14 12:54 | 47.60436 | 7.68479 | 34195 ft | 442 kts | 207° |
| 2026-04-14 12:55 | 47.54908 | 7.64495 | 34195 ft | 441 kts | 207° |
| 2026-04-14 12:55 | 47.49383 | 7.60518 | 34188 ft | 441 kts | 206° |
| 2026-04-14 12:56 | 47.43859 | 7.56548 | 34186 ft | 441 kts | 206° |
| 2026-04-14 12:56 | 47.38367 | 7.52623 | 34179 ft | 441 kts | 206° |
| 2026-04-14 12:57 | 47.32828 | 7.48675 | 34156 ft | 441 kts | 206° |
| 2026-04-14 12:57 | 47.27294 | 7.44726 | 34141 ft | 442 kts | 207° |
| 2026-04-14 12:58 | 47.21734 | 7.40767 | 34134 ft | 444 kts | 207° |
| 2026-04-14 12:58 | 47.16469 | 7.36064 | 34138 ft | 443 kts | 222° |
| 2026-04-14 12:59 | 47.12361 | 7.29415 | 34141 ft | 440 kts | 234° |
| 2026-04-14 12:59 | 47.08575 | 7.22415 | 34144 ft | 441 kts | 233° |
| 2026-04-14 13:00 | 47.04739 | 7.15383 | 34142 ft | 442 kts | 233° |
| 2026-04-14 13:00 | 47.00896 | 7.08346 | 34146 ft | 442 kts | 233° |
| 2026-04-14 13:01 | 46.97040 | 7.01316 | 34152 ft | 442 kts | 233° |
| 2026-04-14 13:01 | 46.93181 | 6.94298 | 34143 ft | 443 kts | 234° |
| 2026-04-14 13:02 | 46.88849 | 6.87850 | 34141 ft | 447 kts | 221° |
| 2026-04-14 13:02 | 46.84017 | 6.82093 | 34145 ft | 448 kts | 221° |
| 2026-04-14 13:03 | 46.79173 | 6.76324 | 34150 ft | 449 kts | 221° |
| 2026-04-14 13:03 | 46.74360 | 6.70610 | 34143 ft | 449 kts | 221° |
| 2026-04-14 13:04 | 46.69516 | 6.64874 | 34142 ft | 449 kts | 221° |
| 2026-04-14 13:04 | 46.64660 | 6.59134 | 34143 ft | 449 kts | 221° |
| 2026-04-14 13:05 | 46.59800 | 6.53399 | 34138 ft | 450 kts | 221° |
| 2026-04-14 13:05 | 46.54924 | 6.47676 | 34140 ft | 450 kts | 221° |
| 2026-04-14 13:06 | 46.50052 | 6.41962 | 34116 ft | 450 kts | 221° |
| 2026-04-14 13:06 | 46.45178 | 6.36249 | 34111 ft | 451 kts | 221° |
| 2026-04-14 13:07 | 46.40278 | 6.30531 | 34116 ft | 452 kts | 221° |
| 2026-04-14 13:07 | 46.35402 | 6.24853 | 34114 ft | 453 kts | 221° |
| 2026-04-14 13:08 | 46.30473 | 6.19127 | 34114 ft | 454 kts | 221° |
| 2026-04-14 13:08 | 46.25158 | 6.14172 | 34120 ft | 458 kts | 205° |
| 2026-04-14 13:09 | 46.18995 | 6.11796 | 34124 ft | 461 kts | 189° |
| 2026-04-14 13:09 | 46.12649 | 6.10401 | 34122 ft | 461 kts | 189° |
| 2026-04-14 13:10 | 46.06295 | 6.08991 | 34117 ft | 462 kts | 189° |
| 2026-04-14 13:10 | 45.99983 | 6.07586 | 34124 ft | 462 kts | 189° |
| 2026-04-14 13:11 | 45.93633 | 6.06179 | 34135 ft | 461 kts | 189° |
| 2026-04-14 13:11 | 45.87295 | 6.04772 | 34135 ft | 460 kts | 189° |
| 2026-04-14 13:12 | 45.80963 | 6.03381 | 34127 ft | 460 kts | 189° |
| 2026-04-14 13:12 | 45.74630 | 6.01988 | 34121 ft | 460 kts | 189° |
| 2026-04-14 13:13 | 45.68298 | 6.00582 | 34150 ft | 460 kts | 189° |
| 2026-04-14 13:13 | 45.61999 | 5.99195 | 34151 ft | 460 kts | 189° |
| 2026-04-14 13:14 | 45.55663 | 5.97801 | 34154 ft | 460 kts | 189° |
| 2026-04-14 13:14 | 45.49322 | 5.96412 | 34145 ft | 461 kts | 189° |
| 2026-04-14 13:15 | 45.43011 | 5.94817 | 34129 ft | 461 kts | 192° |
| 2026-04-14 13:15 | 45.36750 | 5.92791 | 34114 ft | 461 kts | 194° |
| 2026-04-14 13:16 | 45.30549 | 5.90704 | 34091 ft | 461 kts | 193° |
| 2026-04-14 13:16 | 45.24289 | 5.88705 | 34087 ft | 461 kts | 193° |
| 2026-04-14 13:17 | 45.18014 | 5.86793 | 34077 ft | 461 kts | 192° |
| 2026-04-14 13:17 | 45.11753 | 5.84883 | 34069 ft | 460 kts | 192° |
| 2026-04-14 13:18 | 45.05495 | 5.82954 | 34064 ft | 460 kts | 193° |
| 2026-04-14 13:18 | 44.99242 | 5.81019 | 34066 ft | 459 kts | 193° |
| 2026-04-14 13:19 | 44.93039 | 5.79105 | 34062 ft | 459 kts | 192° |
| 2026-04-14 13:19 | 44.86799 | 5.77188 | 34044 ft | 458 kts | 192° |
| 2026-04-14 13:20 | 44.80562 | 5.75279 | 34028 ft | 458 kts | 192° |
| 2026-04-14 13:20 | 44.74327 | 5.73376 | 34022 ft | 458 kts | 192° |
| 2026-04-14 13:21 | 44.68092 | 5.71481 | 34008 ft | 458 kts | 192° |
| 2026-04-14 13:21 | 44.61854 | 5.69577 | 33969 ft | 459 kts | 193° |
| 2026-04-14 13:22 | 44.55597 | 5.67668 | 33966 ft | 462 kts | 193° |
| 2026-04-14 13:22 | 44.49342 | 5.65770 | 33951 ft | 463 kts | 192° |
| 2026-04-14 13:23 | 44.43040 | 5.63868 | 33942 ft | 464 kts | 192° |
| 2026-04-14 13:23 | 44.37817 | 5.62171 | 33941 ft | 463 kts | 199° |
| 2026-04-14 13:24 | 44.31804 | 5.58954 | 33942 ft | 462 kts | 202° |
| 2026-04-14 13:24 | 44.22804 | 5.54027 | 33934 ft | 463 kts | 202° |
| 2026-04-14 13:25 | 44.16800 | 5.50749 | 33940 ft | 463 kts | 202° |
| 2026-04-14 13:26 | 44.04805 | 5.44208 | 33952 ft | 463 kts | 202° |
| 2026-04-14 13:26 | 43.98800 | 5.40966 | 33952 ft | 462 kts | 202° |
| 2026-04-14 13:27 | 43.92849 | 5.37745 | 33944 ft | 461 kts | 202° |
| 2026-04-14 13:27 | 43.86860 | 5.34508 | 33954 ft | 461 kts | 202° |
| 2026-04-14 13:28 | 43.80869 | 5.31285 | 33935 ft | 462 kts | 202° |
| 2026-04-14 13:28 | 43.74864 | 5.28056 | 33940 ft | 464 kts | 202° |
| 2026-04-14 13:29 | 43.68839 | 5.24811 | 33948 ft | 465 kts | 202° |
| 2026-04-14 13:29 | 43.62808 | 5.21571 | 33952 ft | 465 kts | 202° |
| 2026-04-14 13:30 | 43.56761 | 5.18339 | 33950 ft | 466 kts | 202° |
| 2026-04-14 13:30 | 43.50749 | 5.15139 | 33970 ft | 466 kts | 202° |
| 2026-04-14 13:31 | 43.44696 | 5.11915 | 33966 ft | 466 kts | 202° |
| 2026-04-14 13:31 | 43.38712 | 5.08511 | 33966 ft | 465 kts | 210° |
| 2026-04-14 13:32 | 43.33318 | 5.03648 | 33968 ft | 462 kts | 217° |
| 2026-04-14 13:32 | 43.28003 | 4.98658 | 33983 ft | 462 kts | 216° |
| 2026-04-14 13:33 | 43.22721 | 4.93710 | 33971 ft | 463 kts | 217° |
| 2026-04-14 13:33 | 43.17391 | 4.88712 | 33959 ft | 465 kts | 217° |
| 2026-04-14 13:34 | 43.09334 | 4.81174 | 33976 ft | 467 kts | 217° |
| 2026-04-14 13:35 | 43.04121 | 4.75899 | 33986 ft | 464 kts | 225° |
| 2026-04-14 13:35 | 42.99316 | 4.70060 | 33993 ft | 465 kts | 225° |
| 2026-04-14 13:36 | 42.94472 | 4.64195 | 33987 ft | 464 kts | 224° |
| 2026-04-14 13:36 | 42.89619 | 4.58350 | 33998 ft | 464 kts | 224° |
| 2026-04-14 13:37 | 42.84767 | 4.52514 | 33982 ft | 466 kts | 225° |
| 2026-04-14 13:37 | 42.79932 | 4.46710 | 33986 ft | 467 kts | 225° |
| 2026-04-14 13:38 | 42.75042 | 4.40847 | 34004 ft | 468 kts | 225° |
| 2026-04-14 13:38 | 42.70141 | 4.35004 | 34006 ft | 468 kts | 225° |
| 2026-04-14 13:39 | 42.65244 | 4.29167 | 34008 ft | 469 kts | 225° |
| 2026-04-14 13:39 | 42.60332 | 4.23323 | 33755 ft | 464 kts | 225° |
| 2026-04-14 13:39 | 42.57913 | 4.20455 | 33476 ft | 459 kts | 225° |
| 2026-04-14 13:40 | 42.55513 | 4.17614 | 33177 ft | 458 kts | 225° |
| 2026-04-14 13:40 | 42.53146 | 4.14807 | 32921 ft | 458 kts | 225° |
| 2026-04-14 13:40 | 42.50745 | 4.11965 | 32654 ft | 456 kts | 225° |
| 2026-04-14 13:40 | 42.48355 | 4.09138 | 32398 ft | 454 kts | 225° |
| 2026-04-14 13:41 | 42.45978 | 4.06325 | 32131 ft | 451 kts | 225° |
| 2026-04-14 13:41 | 42.43643 | 4.03568 | 31896 ft | 449 kts | 225° |
| 2026-04-14 13:41 | 42.41302 | 4.00806 | 31635 ft | 446 kts | 225° |
| 2026-04-14 13:41 | 42.38961 | 3.98049 | 31354 ft | 442 kts | 225° |
| 2026-04-14 13:42 | 42.36635 | 3.95314 | 30857 ft | 440 kts | 224° |
| 2026-04-14 13:42 | 42.34327 | 3.92601 | 30347 ft | 439 kts | 224° |
| 2026-04-14 13:42 | 42.32022 | 3.89891 | 29799 ft | 437 kts | 224° |
| 2026-04-14 13:42 | 42.29758 | 3.87236 | 29313 ft | 432 kts | 224° |
| 2026-04-14 13:43 | 42.27489 | 3.84582 | 28833 ft | 428 kts | 224° |
| 2026-04-14 13:43 | 42.25249 | 3.81965 | 28421 ft | 422 kts | 224° |
| 2026-04-14 13:43 | 42.23041 | 3.79386 | 27976 ft | 417 kts | 224° |
| 2026-04-14 13:43 | 42.20857 | 3.76834 | 27571 ft | 412 kts | 224° |
| 2026-04-14 13:44 | 42.18704 | 3.74314 | 27144 ft | 408 kts | 224° |
| 2026-04-14 13:44 | 42.16568 | 3.71816 | 26717 ft | 405 kts | 224° |
| 2026-04-14 13:44 | 42.14443 | 3.69335 | 26284 ft | 401 kts | 224° |
| 2026-04-14 13:44 | 42.12362 | 3.66912 | 25846 ft | 399 kts | 224° |
| 2026-04-14 13:45 | 42.10261 | 3.64469 | 25405 ft | 397 kts | 224° |
| 2026-04-14 13:45 | 42.08211 | 3.61996 | 24963 ft | 392 kts | 229° |
| 2026-04-14 13:45 | 42.06321 | 3.59351 | 24571 ft | 390 kts | 230° |
| 2026-04-14 13:45 | 42.04446 | 3.56726 | 24190 ft | 387 kts | 230° |
| 2026-04-14 13:46 | 42.02609 | 3.54158 | 23808 ft | 384 kts | 230° |
| 2026-04-14 13:46 | 42.00759 | 3.51574 | 23389 ft | 382 kts | 229° |
| 2026-04-14 13:46 | 41.98918 | 3.49008 | 22995 ft | 379 kts | 229° |
| 2026-04-14 13:46 | 41.97089 | 3.46462 | 22618 ft | 376 kts | 229° |
| 2026-04-14 13:47 | 41.95272 | 3.43938 | 22243 ft | 374 kts | 229° |
| 2026-04-14 13:47 | 41.93465 | 3.41428 | 21876 ft | 372 kts | 229° |
| 2026-04-14 13:47 | 41.91679 | 3.38948 | 21500 ft | 368 kts | 229° |
| 2026-04-14 13:47 | 41.89925 | 3.36514 | 21138 ft | 364 kts | 229° |
| 2026-04-14 13:48 | 41.88170 | 3.34077 | 20778 ft | 362 kts | 229° |
| 2026-04-14 13:48 | 41.86419 | 3.31648 | 20418 ft | 360 kts | 229° |
| 2026-04-14 13:48 | 41.84682 | 3.29244 | 20062 ft | 357 kts | 229° |
| 2026-04-14 13:48 | 41.82957 | 3.26859 | 19707 ft | 355 kts | 229° |
| 2026-04-14 13:49 | 41.81239 | 3.24482 | 19346 ft | 353 kts | 229° |
| 2026-04-14 13:49 | 41.79555 | 3.22151 | 18999 ft | 352 kts | 228° |
| 2026-04-14 13:49 | 41.77856 | 3.19806 | 18648 ft | 349 kts | 228° |
| 2026-04-14 13:49 | 41.76168 | 3.17479 | 18288 ft | 347 kts | 229° |
| 2026-04-14 13:50 | 41.74490 | 3.15166 | 17918 ft | 345 kts | 228° |
| 2026-04-14 13:50 | 41.72815 | 3.12858 | 17576 ft | 343 kts | 228° |
| 2026-04-14 13:50 | 41.71153 | 3.10576 | 17231 ft | 340 kts | 228° |
| 2026-04-14 13:50 | 41.69500 | 3.08310 | 16895 ft | 338 kts | 228° |
| 2026-04-14 13:51 | 41.67884 | 3.06096 | 16557 ft | 336 kts | 228° |
| 2026-04-14 13:51 | 41.66227 | 3.03892 | 16211 ft | 336 kts | 223° |
| 2026-04-14 13:51 | 41.64324 | 3.02075 | 15835 ft | 338 kts | 211° |
| 2026-04-14 13:51 | 41.62189 | 3.00696 | 15396 ft | 340 kts | 206° |
| 2026-04-14 13:52 | 41.60050 | 2.99382 | 15097 ft | 336 kts | 206° |
| 2026-04-14 13:52 | 41.57928 | 2.98076 | 14751 ft | 335 kts | 206° |
| 2026-04-14 13:52 | 41.55828 | 2.96781 | 14251 ft | 330 kts | 206° |
| 2026-04-14 13:52 | 41.53751 | 2.95495 | 13628 ft | 327 kts | 206° |
| 2026-04-14 13:53 | 41.51721 | 2.94238 | 12965 ft | 324 kts | 206° |
| 2026-04-14 13:53 | 41.49671 | 2.92968 | 12323 ft | 322 kts | 206° |
| 2026-04-14 13:53 | 41.47654 | 2.91722 | 11804 ft | 316 kts | 205° |
| 2026-04-14 13:53 | 41.45664 | 2.90500 | 11337 ft | 314 kts | 205° |
| 2026-04-14 13:54 | 41.43688 | 2.89287 | 10884 ft | 311 kts | 205° |
| 2026-04-14 13:54 | 41.41726 | 2.88080 | 10423 ft | 311 kts | 205° |
| 2026-04-14 13:54 | 41.39780 | 2.86877 | 9974 ft | 313 kts | 205° |
| 2026-04-14 13:54 | 41.37797 | 2.85649 | 9478 ft | 315 kts | 206° |
| 2026-04-14 13:55 | 41.35988 | 2.84030 | 8962 ft | 311 kts | 229° |
| 2026-04-14 13:55 | 41.34874 | 2.81669 | 8475 ft | 294 kts | 255° |
| 2026-04-14 13:55 | 41.34660 | 2.79077 | 7987 ft | 274 kts | 283° |
| 2026-04-14 13:55 | 41.35324 | 2.76817 | 7511 ft | 256 kts | 311° |
| 2026-04-14 13:56 | 41.36642 | 2.75382 | 7033 ft | 241 kts | 337° |
| 2026-04-14 13:56 | 41.38148 | 2.74562 | 6551 ft | 234 kts | 342° |
| 2026-04-14 13:56 | 41.39650 | 2.73838 | 6215 ft | 226 kts | 342° |
| 2026-04-14 13:56 | 41.41115 | 2.73140 | 5956 ft | 220 kts | 342° |
| 2026-04-14 13:57 | 41.42546 | 2.72448 | 5702 ft | 217 kts | 339° |
| 2026-04-14 13:57 | 41.43721 | 2.71210 | 5440 ft | 222 kts | 307° |
| 2026-04-14 13:57 | 41.44254 | 2.69247 | 5184 ft | 231 kts | 285° |
| 2026-04-14 13:57 | 41.44495 | 2.67144 | 4924 ft | 232 kts | 282° |
| 2026-04-14 13:58 | 41.44735 | 2.65033 | 4666 ft | 229 kts | 282° |
| 2026-04-14 13:58 | 41.45033 | 2.62827 | 4406 ft | 251 kts | 282° |
| 2026-04-14 13:58 | 41.45364 | 2.60515 | 4147 ft | 254 kts | 282° |
| 2026-04-14 13:58 | 41.45686 | 2.58192 | 4023 ft | 256 kts | 278° |
| 2026-04-14 13:59 | 41.45497 | 2.55840 | 4029 ft | 258 kts | 256° |
| 2026-04-14 13:59 | 41.45058 | 2.53550 | 4027 ft | 259 kts | 257° |
| 2026-04-14 13:59 | 41.44464 | 2.51282 | 4023 ft | 260 kts | 249° |
| 2026-04-14 13:59 | 41.43726 | 2.49081 | 4024 ft | 259 kts | 246° |
| 2026-04-14 14:00 | 41.42973 | 2.46893 | 4029 ft | 260 kts | 247° |
| 2026-04-14 14:00 | 41.42231 | 2.44700 | 4030 ft | 259 kts | 249° |
| 2026-04-14 14:00 | 41.41492 | 2.42509 | 4028 ft | 260 kts | 248° |
| 2026-04-14 14:00 | 41.40752 | 2.40319 | 4033 ft | 259 kts | 247° |
| 2026-04-14 14:01 | 41.40009 | 2.38123 | 4032 ft | 261 kts | 247° |
| 2026-04-14 14:01 | 41.39264 | 2.35923 | 4021 ft | 260 kts | 248° |
| 2026-04-14 14:01 | 41.38520 | 2.33727 | 3782 ft | 259 kts | 248° |
| 2026-04-14 14:01 | 41.37805 | 2.31622 | 3465 ft | 245 kts | 247° |
| 2026-04-14 14:02 | 41.37120 | 2.29604 | 3151 ft | 232 kts | 246° |
| 2026-04-14 14:02 | 41.36471 | 2.27690 | 2827 ft | 220 kts | 245° |
| 2026-04-14 14:02 | 41.35856 | 2.25877 | 2546 ft | 211 kts | 244° |
| 2026-04-14 14:02 | 41.35266 | 2.24141 | 2269 ft | 206 kts | 244° |
| 2026-04-14 14:03 | 41.34685 | 2.22433 | 2006 ft | 199 kts | 244° |
| 2026-04-14 14:03 | 41.34127 | 2.20792 | 1746 ft | 189 kts | 243° |
| 2026-04-14 14:03 | 41.33603 | 2.19254 | 1475 ft | 175 kts | 245° |
| 2026-04-14 14:03 | 41.33135 | 2.17876 | 1282 ft | 152 kts | 243° |
| 2026-04-14 14:04 | 41.32716 | 2.16643 | 1024 ft | 141 kts | 240° |
| 2026-04-14 14:04 | 41.32330 | 2.15512 | 836 ft | 134 kts | 242° |
| 2026-04-14 14:04 | 41.31945 | 2.14392 | 693 ft | 135 kts | 242° |
| 2026-04-14 14:04 | 41.31566 | 2.13259 | 538 ft | 133 kts | 242° |
| 2026-04-14 14:05 | 41.31182 | 2.12143 | 369 ft | 132 kts | 243° |
| 2026-04-14 14:05 | 41.30803 | 2.11040 | 176 ft | 131 kts | 243° |
| 2026-04-14 14:05 | 41.30429 | 2.09946 | 30 ft | 129 kts | 242° |
| 2026-04-14 14:05 | 41.30098 | 2.08989 | 18 ft | 93 kts | 246° |
| 2026-04-14 14:06 | 41.29920 | 2.08464 | 25 ft | 31 kts | 245° |
| 2026-04-14 14:06 | 41.29785 | 2.08263 | 19 ft | 29 kts | 214° |
| 2026-04-14 14:06 | 41.29692 | 2.08192 | 17 ft | 15 kts | 187° |
| 2026-04-14 14:06 | 41.29588 | 2.08245 | 15 ft | 18 kts | 156° |
| 2026-04-14 14:07 | 41.29475 | 2.08314 | 17 ft | 18 kts | 156° |
| 2026-04-14 14:07 | 41.29363 | 2.08380 | 19 ft | 17 kts | 155° |
| 2026-04-14 14:07 | 41.29255 | 2.08445 | 21 ft | 17 kts | 159° |
| 2026-04-14 14:07 | 41.29133 | 2.08415 | 19 ft | 18 kts | 198° |
| 2026-04-14 14:08 | 41.29038 | 2.08334 | 19 ft | 18 kts | 242° |
| 2026-04-14 14:08 | 41.28992 | 2.08200 | 19 ft | 16 kts | 246° |
| 2026-04-14 14:08 | 41.28949 | 2.08076 | 19 ft | 9 kts | 245° |
| 2026-04-14 14:08 | 41.28954 | 2.08037 | 19 ft | 4 kts | 318° |
| 2026-04-14 14:09 | 41.28982 | 2.08022 | 19 ft | 5 kts | 337° |
| 2026-04-14 14:09 | 41.29007 | 2.08007 | 19 ft | 3 kts | 336° |
| 2026-04-14 14:09 | 41.29014 | 2.08003 | 19 ft | 0 kts | 336° |